Time;durP1;ratioP1;P1;durP2;ratioP2;P2;SDS_P1;SDS_P2;PMS_P1;PMS_P2;Temp;Humidity;BMP_temperature;BMP_pressure;BME280_temperature;BME280_humidity;BME280_pressure;Samples;Min_cycle;Max_cycle;Signal;HPM_P1;HPM_P2
2022/07/26 00:00:56;;;;;;;;;;;22.00;99.90;;;;;;5035650;28;20442;-64
2022/07/26 00:03:25;;;;;;;;;;;22.00;99.90;;;;;;5037679;28;19959;-64
2022/07/26 00:05:53;;;;;;;;;;;22.00;99.90;;;;;;5042493;28;20001;-65
2022/07/26 00:08:21;;;;;;;;;;;22.00;99.90;;;;;;5038084;28;20392;-64
2022/07/26 00:10:49;;;;;;;;;;;22.00;99.90;;;;;;5040522;28;19969;-65
2022/07/26 00:13:18;;;;;;;;;;;22.00;99.90;;;;;;5035193;28;19964;-64
2022/07/26 00:15:46;;;;;;;;;;;21.90;99.90;;;;;;5038690;28;20017;-64
2022/07/26 00:18:15;;;;;;;;;;;21.90;99.90;;;;;;5037132;28;20061;-65
2022/07/26 00:20:44;;;;;;;;;;;21.80;99.90;;;;;;5043306;28;19970;-65
2022/07/26 00:23:13;;;;;;;;;;;21.80;99.90;;;;;;5038981;28;19965;-65
2022/07/26 00:28:26;;;;;;;;;;;21.80;99.90;;;;;;5035493;28;20447;-65
2022/07/26 00:30:54;;;;;;;;;;;21.80;99.90;;;;;;5038750;28;20034;-65
2022/07/26 00:33:21;;;;;;;;;;;21.80;99.90;;;;;;5045261;28;20687;-65
2022/07/26 00:35:50;;;;;;;;;;;21.70;99.90;;;;;;5034721;28;20052;-65
2022/07/26 00:38:18;;;;;;;;;;;21.70;99.90;;;;;;5032713;28;20030;-64
2022/07/26 00:40:46;;;;;;;;;;;21.70;99.90;;;;;;5036477;28;19997;-63
2022/07/26 00:43:14;;;;;;;;;;;21.70;99.90;;;;;;5042899;28;20502;-64
2022/07/26 00:45:42;;;;;;;;;;;21.60;99.90;;;;;;5040262;28;20040;-63
2022/07/26 00:48:09;;;;;;;;;;;21.60;99.90;;;;;;5042234;28;20049;-64
2022/07/26 00:50:37;;;;;;;;;;;21.60;99.90;;;;;;5034654;28;20449;-64
2022/07/26 00:53:06;;;;;;;;;;;21.60;99.90;;;;;;5041485;28;19968;-64
2022/07/26 00:55:34;;;;;;;;;;;21.60;99.90;;;;;;5032999;28;20180;-65
2022/07/26 00:58:02;;;;;;;;;;;21.70;99.90;;;;;;5036534;28;19979;-65
2022/07/26 01:00:30;;;;;;;;;;;21.70;99.90;;;;;;5038493;28;20063;-65
2022/07/26 01:02:59;;;;;;;;;;;21.70;99.90;;;;;;5040148;28;19975;-65
2022/07/26 01:05:27;;;;;;;;;;;21.70;99.90;;;;;;5038256;28;19973;-65
2022/07/26 01:07:55;;;;;;;;;;;21.70;99.90;;;;;;5035247;28;20432;-64
2022/07/26 01:10:24;;;;;;;;;;;21.70;99.90;;;;;;5032426;28;20749;-65
2022/07/26 01:12:52;;;;;;;;;;;21.70;99.90;;;;;;5037700;28;20459;-65
2022/07/26 01:15:20;;;;;;;;;;;21.70;99.90;;;;;;5038670;28;20084;-65
2022/07/26 01:17:50;;;;;;;;;;;21.70;99.90;;;;;;5038709;28;20467;-65
2022/07/26 01:20:18;;;;;;;;;;;21.70;99.90;;;;;;5038162;28;19969;-65
2022/07/26 01:22:47;;;;;;;;;;;21.70;99.90;;;;;;5034997;28;19997;-64
2022/07/26 01:25:15;;;;;;;;;;;21.60;99.90;;;;;;5035801;28;19972;-65
2022/07/26 01:27:43;;;;;;;;;;;21.60;99.90;;;;;;5037645;28;20270;-63
2022/07/26 01:30:11;;;;;;;;;;;21.50;99.90;;;;;;5036106;28;20506;-64
2022/07/26 01:32:39;;;;;;;;;;;21.50;99.90;;;;;;5033893;28;20005;-65
2022/07/26 01:35:09;;;;;;;;;;;21.50;99.90;;;;;;5040714;28;19992;-63
2022/07/26 01:37:36;;;;;;;;;;;21.50;99.90;;;;;;5036377;28;19965;-64
2022/07/26 01:40:06;;;;;;;;;;;21.60;99.90;;;;;;5039884;28;19990;-64
2022/07/26 01:42:39;;;;;;;;;;;21.60;99.90;;;;;;5036547;28;19975;-64
2022/07/26 01:45:07;;;;;;;;;;;21.60;99.90;;;;;;5038487;28;19971;-63
2022/07/26 01:47:35;;;;;;;;;;;21.70;99.90;;;;;;5047306;28;20018;-65
2022/07/26 01:50:03;;;;;;;;;;;21.70;99.90;;;;;;5040587;28;20322;-64
2022/07/26 01:52:31;;;;;;;;;;;21.70;99.90;;;;;;5034912;28;19990;-63
2022/07/26 01:54:59;;;;;;;;;;;21.70;99.90;;;;;;5046364;28;19959;-63
2022/07/26 01:57:28;;;;;;;;;;;21.70;99.90;;;;;;5046164;28;20047;-64
2022/07/26 01:59:56;;;;;;;;;;;21.80;99.90;;;;;;5041570;28;19970;-63
2022/07/26 02:02:24;;;;;;;;;;;21.70;99.90;;;;;;5035315;28;20000;-62
2022/07/26 02:05:01;;;;;;;;;;;21.60;99.90;;;;;;5043093;28;19970;-65
2022/07/26 02:07:32;;;;;;;;;;;21.60;99.90;;;;;;5038560;28;19976;-61
2022/07/26 02:10:00;;;;;;;;;;;21.60;99.90;;;;;;5045898;28;20511;-63
2022/07/26 02:12:29;;;;;;;;;;;21.60;99.90;;;;;;5043400;28;20649;-64
2022/07/26 02:14:58;;;;;;;;;;;21.60;99.90;;;;;;5039393;28;20039;-62
2022/07/26 02:17:26;;;;;;;;;;;21.60;99.90;;;;;;5045790;28;20061;-64
2022/07/26 02:19:53;;;;;;;;;;;21.60;99.90;;;;;;5034952;28;20465;-64
2022/07/26 02:22:21;;;;;;;;;;;21.60;99.90;;;;;;5051105;28;20471;-64
2022/07/26 02:24:50;;;;;;;;;;;21.60;99.90;;;;;;5054046;28;20040;-64
2022/07/26 02:27:17;;;;;;;;;;;21.70;99.90;;;;;;5035867;28;20038;-64
2022/07/26 02:29:46;;;;;;;;;;;21.60;99.90;;;;;;5035099;28;20688;-65
2022/07/26 02:32:14;;;;;;;;;;;21.60;99.90;;;;;;5034643;28;20679;-64
2022/07/26 02:34:42;;;;;;;;;;;21.60;99.90;;;;;;5034586;28;20088;-63
2022/07/26 02:37:10;;;;;;;;;;;21.60;99.90;;;;;;5035172;28;20516;-64
2022/07/26 02:39:38;;;;;;;;;;;21.50;99.90;;;;;;5034799;28;20053;-62
2022/07/26 02:42:05;;;;;;;;;;;21.40;99.90;;;;;;5034511;28;20029;-64
2022/07/26 02:44:34;;;;;;;;;;;21.40;99.90;;;;;;5035603;28;19975;-64
2022/07/26 02:47:03;;;;;;;;;;;21.40;99.90;;;;;;5038319;28;20105;-64
2022/07/26 02:49:31;;;;;;;;;;;21.20;99.90;;;;;;5040413;28;19982;-64
2022/07/26 02:51:59;;;;;;;;;;;21.30;99.90;;;;;;5034446;28;19973;-63
2022/07/26 02:54:26;;;;;;;;;;;21.30;99.90;;;;;;5036728;28;20057;-64
2022/07/26 02:56:54;;;;;;;;;;;21.20;99.90;;;;;;5037334;28;19969;-64
2022/07/26 02:59:22;;;;;;;;;;;21.20;99.90;;;;;;5034368;28;19973;-64
2022/07/26 03:01:50;;;;;;;;;;;21.10;99.90;;;;;;5036376;28;20049;-64
2022/07/26 03:04:19;;;;;;;;;;;21.00;99.90;;;;;;5037170;28;19975;-64
2022/07/26 03:06:46;;;;;;;;;;;20.90;99.90;;;;;;5034329;28;19980;-64
2022/07/26 03:09:14;;;;;;;;;;;20.90;99.90;;;;;;5034145;28;20033;-64
2022/07/26 03:11:42;;;;;;;;;;;20.80;99.90;;;;;;5037346;28;19976;-64
2022/07/26 03:14:10;;;;;;;;;;;20.80;99.90;;;;;;5052798;28;20476;-63
2022/07/26 03:16:38;;;;;;;;;;;20.80;99.90;;;;;;5043571;28;19969;-62
2022/07/26 03:19:06;;;;;;;;;;;20.80;99.90;;;;;;5037436;28;19973;-63
2022/07/26 03:21:35;;;;;;;;;;;20.70;99.90;;;;;;5033911;28;20045;-63
2022/07/26 03:24:02;;;;;;;;;;;20.60;99.90;;;;;;5033466;28;20441;-63
2022/07/26 03:26:30;;;;;;;;;;;20.40;99.90;;;;;;5033432;28;20031;-63
2022/07/26 03:28:58;;;;;;;;;;;20.40;99.90;;;;;;5036918;28;19997;-62
2022/07/26 03:31:26;;;;;;;;;;;20.40;99.90;;;;;;5043713;28;19976;-63
2022/07/26 03:33:54;;;;;;;;;;;20.40;99.90;;;;;;5035783;28;19988;-64
2022/07/26 03:36:29;;;;;;;;;;;20.30;99.90;;;;;;5033693;28;20570;-65
2022/07/26 03:38:59;;;;;;;;;;;20.30;99.90;;;;;;5034869;28;20039;-63
2022/07/26 03:41:27;;;;;;;;;;;20.30;99.90;;;;;;5033343;28;20017;-65
2022/07/26 03:43:54;;;;;;;;;;;20.20;99.90;;;;;;5033848;28;20034;-64
2022/07/26 03:46:22;;;;;;;;;;;20.20;99.90;;;;;;5036483;28;19973;-65
2022/07/26 03:48:50;;;;;;;;;;;20.10;99.90;;;;;;5035543;28;20029;-64
2022/07/26 03:51:18;;;;;;;;;;;20.10;99.90;;;;;;5036529;28;20023;-65
2022/07/26 03:53:45;;;;;;;;;;;20.10;99.90;;;;;;5036165;28;20316;-64
2022/07/26 03:56:31;;;;;;;;;;;20.10;99.90;;;;;;5036487;28;20714;-67
2022/07/26 03:59:00;;;;;;;;;;;20.00;99.90;;;;;;5035552;28;20541;-64
2022/07/26 04:01:28;;;;;;;;;;;20.00;99.90;;;;;;5035372;28;19974;-65
2022/07/26 04:03:56;;;;;;;;;;;20.00;99.90;;;;;;5035270;28;19985;-65
2022/07/26 04:06:24;;;;;;;;;;;19.90;99.90;;;;;;5036380;28;19973;-65
2022/07/26 04:08:52;;;;;;;;;;;19.90;99.90;;;;;;5034289;28;20515;-65
2022/07/26 04:11:22;;;;;;;;;;;19.80;99.90;;;;;;5034036;28;20487;-65
2022/07/26 04:13:55;;;;;;;;;;;19.80;99.90;;;;;;5032975;28;20039;-65
2022/07/26 04:16:23;;;;;;;;;;;19.70;99.90;;;;;;5035147;28;20071;-65
2022/07/26 04:18:50;;;;;;;;;;;19.70;99.90;;;;;;5031332;28;19997;-65
2022/07/26 04:21:18;;;;;;;;;;;19.70;99.90;;;;;;5034340;28;19974;-64
2022/07/26 04:23:46;;;;;;;;;;;19.60;99.90;;;;;;5033710;28;20046;-64
2022/07/26 04:26:18;;;;;;;;;;;19.60;99.90;;;;;;5034741;28;19969;-64
2022/07/26 04:28:47;;;;;;;;;;;19.60;99.90;;;;;;5029359;28;20024;-64
2022/07/26 04:31:15;;;;;;;;;;;19.60;99.90;;;;;;5032503;28;25148;-64
2022/07/26 04:33:43;;;;;;;;;;;19.60;99.90;;;;;;5034471;28;19978;-64
2022/07/26 04:36:11;;;;;;;;;;;19.70;99.90;;;;;;5033615;28;20052;-64
2022/07/26 04:38:39;;;;;;;;;;;19.60;99.90;;;;;;5032842;28;19983;-65
2022/07/26 04:41:06;;;;;;;;;;;19.60;99.90;;;;;;5033238;28;20006;-65
2022/07/26 04:43:34;;;;;;;;;;;19.60;99.90;;;;;;5032125;28;20003;-65
2022/07/26 04:46:03;;;;;;;;;;;19.60;99.90;;;;;;5034830;28;20051;-64
2022/07/26 04:48:31;;;;;;;;;;;19.60;99.90;;;;;;5033316;28;20141;-65
2022/07/26 04:51:00;;;;;;;;;;;19.60;99.90;;;;;;5035105;28;20002;-64
2022/07/26 04:53:28;;;;;;;;;;;19.60;99.90;;;;;;5031385;28;20092;-65
2022/07/26 04:55:55;;;;;;;;;;;19.50;99.90;;;;;;5034901;28;20040;-65
2022/07/26 04:58:23;;;;;;;;;;;19.50;99.90;;;;;;5033405;28;19977;-64
2022/07/26 05:00:51;;;;;;;;;;;19.50;99.90;;;;;;5034409;28;20537;-64
2022/07/26 05:03:40;;;;;;;;;;;19.50;99.90;;;;;;5026291;28;19979;-66
2022/07/26 05:06:08;;;;;;;;;;;19.40;99.90;;;;;;5034007;28;20017;-64
2022/07/26 05:08:36;;;;;;;;;;;19.50;99.90;;;;;;5030600;28;20386;-66
2022/07/26 05:11:03;;;;;;;;;;;19.50;99.90;;;;;;5034793;28;20037;-65
2022/07/26 05:13:31;;;;;;;;;;;19.50;99.90;;;;;;5031722;28;20029;-65
2022/07/26 05:15:59;;;;;;;;;;;19.50;99.90;;;;;;5033914;28;19983;-65
2022/07/26 05:18:29;;;;;;;;;;;19.50;99.90;;;;;;5032450;28;19980;-65
2022/07/26 05:21:13;;;;;;;;;;;19.60;99.90;;;;;;5031998;28;20086;-65
2022/07/26 05:23:41;;;;;;;;;;;19.70;99.90;;;;;;5031262;28;20104;-64
2022/07/26 05:26:10;;;;;;;;;;;19.70;99.90;;;;;;5034468;28;19977;-65
2022/07/26 05:28:38;;;;;;;;;;;19.80;99.90;;;;;;5028943;28;19967;-66
2022/07/26 05:31:06;;;;;;;;;;;19.70;99.90;;;;;;5032713;28;19974;-65
2022/07/26 05:33:34;;;;;;;;;;;19.70;99.90;;;;;;5031865;28;19968;-65
2022/07/26 05:36:02;;;;;;;;;;;19.60;99.90;;;;;;5032289;28;19976;-66
2022/07/26 05:38:31;;;;;;;;;;;19.60;99.90;;;;;;5030603;28;19973;-65
2022/07/26 05:40:59;;;;;;;;;;;19.70;99.90;;;;;;5034222;28;21063;-64
2022/07/26 05:43:27;;;;;;;;;;;19.70;99.90;;;;;;5034075;28;19968;-64
2022/07/26 05:46:08;;;;;;;;;;;19.70;99.90;;;;;;5042667;28;19964;-65
2022/07/26 05:48:36;;;;;;;;;;;19.70;99.90;;;;;;5042159;28;19970;-65
2022/07/26 05:51:04;;;;;;;;;;;19.80;99.90;;;;;;5035335;28;19963;-65
2022/07/26 05:53:33;;;;;;;;;;;20.00;99.90;;;;;;5037038;28;19959;-63
2022/07/26 05:56:01;;;;;;;;;;;20.10;99.90;;;;;;5044416;28;19959;-64
2022/07/26 05:58:29;;;;;;;;;;;20.20;99.90;;;;;;5043885;28;19970;-64
2022/07/26 06:00:57;;;;;;;;;;;20.20;99.90;;;;;;5045519;28;19972;-65
2022/07/26 06:03:24;;;;;;;;;;;20.30;99.90;;;;;;5043995;28;20016;-64
2022/07/26 06:05:54;;;;;;;;;;;20.30;99.90;;;;;;5045004;28;19968;-63
2022/07/26 06:08:22;;;;;;;;;;;20.40;99.90;;;;;;5039478;28;19972;-62
2022/07/26 06:10:51;;;;;;;;;;;20.50;99.90;;;;;;5045316;28;20070;-64
2022/07/26 06:13:19;;;;;;;;;;;20.70;99.90;;;;;;5038460;28;20434;-64
2022/07/26 06:15:47;;;;;;;;;;;20.80;99.90;;;;;;5038994;28;19973;-65
2022/07/26 06:18:14;;;;;;;;;;;20.80;99.90;;;;;;5045973;28;19967;-64
2022/07/26 06:20:43;;;;;;;;;;;20.90;99.90;;;;;;5038032;28;19965;-65
2022/07/26 06:23:11;;;;;;;;;;;20.80;99.90;;;;;;5041664;28;20023;-65
2022/07/26 06:25:39;;;;;;;;;;;20.90;99.90;;;;;;5037392;28;20017;-66
2022/07/26 06:28:10;;;;;;;;;;;21.20;99.90;;;;;;5037955;28;19989;-65
2022/07/26 06:30:38;;;;;;;;;;;21.40;99.90;;;;;;5038373;28;20047;-65
2022/07/26 06:33:06;;;;;;;;;;;21.50;99.90;;;;;;5037616;28;20036;-64
2022/07/26 06:35:34;;;;;;;;;;;21.50;99.90;;;;;;5039715;28;20461;-66
2022/07/26 06:38:02;;;;;;;;;;;21.60;99.90;;;;;;5034837;28;20423;-65
2022/07/26 06:40:30;;;;;;;;;;;21.60;99.90;;;;;;5034830;28;19974;-65
2022/07/26 06:42:58;;;;;;;;;;;21.70;99.90;;;;;;5034571;28;20010;-65
2022/07/26 06:45:32;;;;;;;;;;;21.80;99.90;;;;;;5040450;28;20036;-65
2022/07/26 06:48:01;;;;;;;;;;;21.80;99.90;;;;;;5041177;28;19994;-65
2022/07/26 06:50:28;;;;;;;;;;;21.80;99.90;;;;;;5053739;28;20512;-65
2022/07/26 06:52:56;;;;;;;;;;;21.80;99.90;;;;;;5053265;28;20020;-65
2022/07/26 06:55:24;;;;;;;;;;;21.80;99.90;;;;;;5053185;28;19972;-65
2022/07/26 06:57:51;;;;;;;;;;;21.80;99.90;;;;;;5053778;28;20004;-65
2022/07/26 07:00:19;;;;;;;;;;;22.00;99.90;;;;;;5053440;28;20993;-65
2022/07/26 07:02:48;;;;;;;;;;;22.00;99.90;;;;;;5053025;28;19980;-65
2022/07/26 07:05:16;;;;;;;;;;;22.20;99.90;;;;;;5053068;28;21366;-65
2022/07/26 07:07:44;;;;;;;;;;;22.20;99.90;;;;;;5053183;28;20013;-65
2022/07/26 07:10:13;;;;;;;;;;;22.30;99.90;;;;;;5053226;28;20767;-65
2022/07/26 07:12:43;;;;;;;;;;;22.40;99.90;;;;;;5053089;28;20096;-65
2022/07/26 07:15:11;;;;;;;;;;;22.70;99.90;;;;;;5049955;28;20072;-66
2022/07/26 07:17:39;;;;;;;;;;;22.80;99.90;;;;;;5044913;28;19980;-64
2022/07/26 07:20:09;;;;;;;;;;;22.70;99.90;;;;;;5037202;28;20341;-66
2022/07/26 07:22:36;;;;;;;;;;;22.70;99.90;;;;;;5033483;28;20471;-65
2022/07/26 07:25:04;;;;;;;;;;;22.80;99.90;;;;;;5033755;28;20063;-65
2022/07/26 07:27:33;;;;;;;;;;;22.70;99.90;;;;;;5033717;28;20056;-65
2022/07/26 07:30:01;;;;;;;;;;;22.80;99.90;;;;;;5033843;28;19994;-65
2022/07/26 07:32:30;;;;;;;;;;;22.80;99.90;;;;;;5033048;28;20074;-65
2022/07/26 07:34:58;;;;;;;;;;;22.80;99.90;;;;;;5033703;28;20009;-65
2022/07/26 07:37:27;;;;;;;;;;;23.00;99.90;;;;;;5033328;28;20585;-65
2022/07/26 07:40:15;;;;;;;;;;;23.20;99.90;;;;;;5052951;28;21149;-65
2022/07/26 07:42:44;;;;;;;;;;;23.40;99.90;;;;;;5033251;28;20534;-65
2022/07/26 07:45:12;;;;;;;;;;;23.60;99.90;;;;;;5039424;28;19962;-64
2022/07/26 07:47:39;;;;;;;;;;;23.50;99.50;;;;;;5041937;28;20035;-65
2022/07/26 07:50:07;;;;;;;;;;;23.60;99.30;;;;;;5052861;28;19973;-65
2022/07/26 07:52:36;;;;;;;;;;;23.70;99.70;;;;;;5052371;28;20947;-65
2022/07/26 07:55:07;;;;;;;;;;;23.80;99.20;;;;;;5033464;28;20057;-65
2022/07/26 07:57:55;;;;;;;;;;;24.00;99.30;;;;;;5033326;28;20320;-65
2022/07/26 08:00:24;;;;;;;;;;;24.00;99.00;;;;;;5033191;28;20025;-64
2022/07/26 08:02:54;;;;;;;;;;;24.00;99.20;;;;;;5033280;28;20171;-65
2022/07/26 08:05:22;;;;;;;;;;;24.10;99.30;;;;;;5033135;28;20895;-65
2022/07/26 08:07:51;;;;;;;;;;;24.40;98.90;;;;;;5033495;28;20137;-65
2022/07/26 08:10:19;;;;;;;;;;;24.50;98.60;;;;;;5033026;28;20057;-66
2022/07/26 08:12:47;;;;;;;;;;;24.60;98.20;;;;;;5033171;28;20148;-65
2022/07/26 08:15:18;;;;;;;;;;;24.50;97.40;;;;;;5036570;28;20020;-65
2022/07/26 08:17:48;;;;;;;;;;;24.60;97.30;;;;;;5039779;28;20261;-65
2022/07/26 08:20:21;;;;;;;;;;;24.60;97.50;;;;;;5034491;28;20041;-65
2022/07/26 08:22:53;;;;;;;;;;;24.70;97.60;;;;;;5032537;28;20068;-65
2022/07/26 08:25:21;;;;;;;;;;;24.90;97.30;;;;;;5032218;28;20007;-65
2022/07/26 08:27:49;;;;;;;;;;;25.20;97.40;;;;;;5032613;28;21042;-65
2022/07/26 08:30:30;;;;;;;;;;;25.40;96.90;;;;;;5045910;28;21331;-65
2022/07/26 08:32:58;;;;;;;;;;;25.60;96.70;;;;;;5033700;28;20767;-65
2022/07/26 08:35:28;;;;;;;;;;;25.80;96.50;;;;;;5038533;28;20651;-65
2022/07/26 08:37:57;;;;;;;;;;;26.10;96.00;;;;;;5032497;28;20038;-65
2022/07/26 08:40:25;;;;;;;;;;;26.50;95.50;;;;;;5032535;28;20222;-65
2022/07/26 08:42:53;;;;;;;;;;;26.40;94.70;;;;;;5032023;28;20825;-65
2022/07/26 08:45:22;;;;;;;;;;;26.30;94.30;;;;;;5038528;28;19987;-65
2022/07/26 08:47:50;;;;;;;;;;;25.80;94.60;;;;;;5038225;28;20266;-65
2022/07/26 08:50:38;;;;;;;;;;;25.60;95.20;;;;;;5032181;28;21237;-65
2022/07/26 08:53:08;;;;;;;;;;;25.50;95.20;;;;;;5032005;28;19979;-65
2022/07/26 08:55:36;;;;;;;;;;;25.20;95.10;;;;;;5031813;28;20869;-66
2022/07/26 08:58:23;;;;;;;;;;;25.30;95.40;;;;;;5032341;28;20700;-65
2022/07/26 09:01:02;;;;;;;;;;;25.80;94.90;;;;;;5032358;28;20101;-65
2022/07/26 09:03:30;;;;;;;;;;;26.40;95.60;;;;;;5045666;28;20395;-65
2022/07/26 09:06:10;;;;;;;;;;;27.00;93.80;;;;;;5051092;28;20407;-65
2022/07/26 09:08:39;;;;;;;;;;;26.80;93.40;;;;;;5051645;28;20918;-65
2022/07/26 09:11:25;;;;;;;;;;;26.70;93.40;;;;;;5051192;28;20199;-66
2022/07/26 09:13:54;;;;;;;;;;;26.40;93.40;;;;;;5051014;28;20001;-65
2022/07/26 09:16:22;;;;;;;;;;;26.10;93.70;;;;;;5039876;28;20779;-65
2022/07/26 09:18:50;;;;;;;;;;;26.20;93.70;;;;;;5042552;28;20273;-66
2022/07/26 09:21:28;;;;;;;;;;;26.20;93.40;;;;;;5032071;28;20348;-65
2022/07/26 09:23:57;;;;;;;;;;;26.00;93.30;;;;;;5031581;28;20991;-65
2022/07/26 09:26:25;;;;;;;;;;;25.70;93.50;;;;;;5037856;28;25064;-65
2022/07/26 09:29:01;;;;;;;;;;;25.50;93.80;;;;;;5031774;28;20552;-65
2022/07/26 09:31:29;;;;;;;;;;;25.50;94.10;;;;;;5045627;28;20277;-65
2022/07/26 09:33:58;;;;;;;;;;;25.50;93.40;;;;;;5050621;28;20803;-65
2022/07/26 09:36:27;;;;;;;;;;;25.50;93.50;;;;;;5051040;28;20125;-65
2022/07/26 09:38:57;;;;;;;;;;;25.50;93.50;;;;;;5050864;28;20665;-65
2022/07/26 09:41:27;;;;;;;;;;;25.50;94.30;;;;;;5050965;28;20301;-65
2022/07/26 09:43:57;;;;;;;;;;;25.30;94.00;;;;;;5050508;28;20845;-65
2022/07/26 09:46:25;;;;;;;;;;;25.50;94.00;;;;;;5046505;28;19980;-65
2022/07/26 09:48:55;;;;;;;;;;;26.00;93.90;;;;;;5034472;28;25116;-65
2022/07/26 09:51:39;;;;;;;;;;;26.50;93.10;;;;;;5031830;28;20349;-65
2022/07/26 09:54:07;;;;;;;;;;;27.20;93.50;;;;;;5031454;28;20723;-65
2022/07/26 09:56:45;;;;;;;;;;;28.00;92.50;;;;;;5034938;28;20674;-65
2022/07/26 09:59:13;;;;;;;;;;;28.40;91.60;;;;;;5035383;28;20104;-65
2022/07/26 10:01:40;;;;;;;;;;;28.30;90.90;;;;;;5035488;28;21294;-65
2022/07/26 10:04:08;;;;;;;;;;;28.50;90.80;;;;;;5035033;28;20433;-66
2022/07/26 10:06:37;;;;;;;;;;;28.60;91.00;;;;;;5035544;28;20700;-65
2022/07/26 10:09:05;;;;;;;;;;;28.50;91.30;;;;;;5035199;28;20557;-65
2022/07/26 10:11:36;;;;;;;;;;;28.30;90.70;;;;;;5035081;28;20607;-65
2022/07/26 10:14:19;;;;;;;;;;;27.70;90.80;;;;;;5035028;28;19977;-65
2022/07/26 10:16:48;;;;;;;;;;;27.40;91.60;;;;;;5040890;28;20043;-64
2022/07/26 10:19:30;;;;;;;;;;;26.90;91.30;;;;;;5044924;28;20598;-65
2022/07/26 10:22:15;;;;;;;;;;;26.70;91.20;;;;;;5034655;28;20482;-65
2022/07/26 10:24:43;;;;;;;;;;;26.30;91.60;;;;;;5035129;28;20145;-65
2022/07/26 10:27:26;;;;;;;;;;;26.00;92.20;;;;;;5034578;28;20650;-65
2022/07/26 10:30:18;;;;;;;;;;;25.80;92.70;;;;;;5048929;28;20472;-65
2022/07/26 10:32:57;;;;;;;;;;;25.50;92.80;;;;;;5044289;28;25085;-65
2022/07/26 10:35:31;;;;;;;;;;;25.70;93.00;;;;;;5040097;28;20366;-66
2022/07/26 10:37:59;;;;;;;;;;;26.50;92.00;;;;;;5038612;28;20313;-65
2022/07/26 10:40:29;;;;;;;;;;;27.30;92.00;;;;;;5035027;28;20296;-65
2022/07/26 10:43:09;;;;;;;;;;;28.30;90.80;;;;;;5033736;28;22259;-65
2022/07/26 10:46:12;;;;;;;;;;;28.90;90.30;;;;;;5034627;28;20933;-66
2022/07/26 10:51:37;;;;;;;;;;;30.20;88.20;;;;;;5077002;28;20221;-65
2022/07/26 10:54:06;;;;;;;;;;;30.40;87.80;;;;;;5068983;28;20662;-65
2022/07/26 10:56:35;;;;;;;;;;;30.20;86.90;;;;;;5069059;28;20691;-65
2022/07/26 10:59:03;;;;;;;;;;;29.50;87.30;;;;;;5069033;28;20221;-65
2022/07/26 11:01:33;;;;;;;;;;;28.70;87.50;;;;;;5068835;28;20229;-64
2022/07/26 11:04:02;;;;;;;;;;;28.30;88.60;;;;;;5086403;22;20864;-64
2022/07/26 11:06:29;;;;;;;;;;;28.10;88.70;;;;;;4992854;28;20513;-64
2022/07/26 11:09:09;;;;;;;;;;;28.40;88.60;;;;;;4991970;28;20807;-64
2022/07/26 11:11:36;;;;;;;;;;;28.80;87.50;;;;;;4986591;28;20245;-64
2022/07/26 11:14:05;;;;;;;;;;;28.40;87.20;;;;;;4986296;28;20018;-63
2022/07/26 11:16:37;;;;;;;;;;;28.50;89.40;;;;;;4985540;28;21236;-63
2022/07/26 11:19:12;;;;;;;;;;;28.90;90.00;;;;;;4986410;28;20421;-63
2022/07/26 11:21:40;;;;;;;;;;;29.40;87.30;;;;;;4986614;28;21113;-65
2022/07/26 11:24:09;;;;;;;;;;;29.40;87.40;;;;;;4985719;28;20225;-66
2022/07/26 11:26:41;;;;;;;;;;;29.80;87.20;;;;;;4985539;28;20755;-65
2022/07/26 11:29:09;;;;;;;;;;;30.00;85.70;;;;;;4984243;28;20496;-65
2022/07/26 11:31:44;;;;;;;;;;;29.90;86.90;;;;;;5013611;28;20451;-64
2022/07/26 11:34:27;;;;;;;;;;;29.40;87.10;;;;;;4989003;28;20367;-64
2022/07/26 11:36:56;;;;;;;;;;;28.80;88.70;;;;;;4979279;28;20453;-63
2022/07/26 11:39:25;;;;;;;;;;;28.00;90.10;;;;;;4979490;28;20211;-63
2022/07/26 11:41:56;;;;;;;;;;;27.60;90.50;;;;;;4986315;28;20279;-63
2022/07/26 11:44:24;;;;;;;;;;;27.10;90.70;;;;;;5008813;28;20318;-63
2022/07/26 11:46:53;;;;;;;;;;;26.70;91.20;;;;;;5034850;28;25063;-64
2022/07/26 11:49:22;;;;;;;;;;;26.50;91.20;;;;;;4979695;28;20575;-63
2022/07/26 11:52:10;;;;;;;;;;;26.40;91.50;;;;;;4985357;28;20761;-63
2022/07/26 11:54:45;;;;;;;;;;;26.30;91.50;;;;;;4985453;28;20235;-64
2022/07/26 11:57:13;;;;;;;;;;;26.30;91.70;;;;;;4985562;28;20909;-63
2022/07/26 11:59:43;;;;;;;;;;;26.60;91.60;;;;;;4985385;28;25094;-63
2022/07/26 12:02:11;;;;;;;;;;;26.90;92.00;;;;;;4976494;28;21000;-63
2022/07/26 12:04:40;;;;;;;;;;;27.40;91.30;;;;;;4972246;28;20763;-63
2022/07/26 12:07:09;;;;;;;;;;;28.00;90.80;;;;;;4972152;28;20177;-64
2022/07/26 12:09:37;;;;;;;;;;;28.30;90.00;;;;;;4972341;28;21151;-63
2022/07/26 12:12:07;;;;;;;;;;;28.50;90.50;;;;;;4972085;28;20679;-63
2022/07/26 12:14:35;;;;;;;;;;;28.50;90.00;;;;;;4979535;28;20237;-63
2022/07/26 12:17:10;;;;;;;;;;;28.40;90.50;;;;;;4970531;28;20206;-63
2022/07/26 12:19:38;;;;;;;;;;;28.40;90.40;;;;;;4972574;28;20253;-64
2022/07/26 12:22:09;;;;;;;;;;;28.60;89.20;;;;;;4972054;28;20266;-64
2022/07/26 12:24:43;;;;;;;;;;;29.00;89.40;;;;;;4972365;28;20209;-64
2022/07/26 12:27:14;;;;;;;;;;;29.60;88.50;;;;;;4965918;28;20264;-63
2022/07/26 12:29:42;;;;;;;;;;;30.20;87.80;;;;;;4966389;28;20653;-63
2022/07/26 12:32:12;;;;;;;;;;;31.00;85.40;;;;;;4971519;28;25089;-63
2022/07/26 12:34:41;;;;;;;;;;;31.20;83.80;;;;;;4971990;28;20090;-64
2022/07/26 12:37:14;;;;;;;;;;;30.60;84.20;;;;;;4971853;28;20335;-64
2022/07/26 12:39:42;;;;;;;;;;;29.80;86.10;;;;;;4971822;28;20319;-63
2022/07/26 12:42:25;;;;;;;;;;;29.10;86.30;;;;;;4971606;28;20101;-64
2022/07/26 12:45:02;;;;;;;;;;;28.50;87.50;;;;;;4975916;28;20620;-63
2022/07/26 12:47:29;;;;;;;;;;;27.90;88.70;;;;;;4976947;28;20667;-63
2022/07/26 12:49:57;;;;;;;;;;;27.60;89.30;;;;;;4972168;28;20213;-64
2022/07/26 12:52:25;;;;;;;;;;;27.50;89.80;;;;;;4971533;28;20292;-64
2022/07/26 12:54:53;;;;;;;;;;;27.70;88.30;;;;;;4971484;28;20649;-63
2022/07/26 12:57:21;;;;;;;;;;;28.40;89.70;;;;;;4971342;28;20286;-63
2022/07/26 12:59:50;;;;;;;;;;;29.10;86.40;;;;;;4971706;28;20201;-63
2022/07/26 13:02:18;;;;;;;;;;;29.10;84.90;;;;;;4971469;28;20649;-64
2022/07/26 13:04:46;;;;;;;;;;;28.90;86.50;;;;;;4971225;28;20222;-63
2022/07/26 13:07:15;;;;;;;;;;;28.50;87.00;;;;;;4971284;28;20208;-63
2022/07/26 13:09:43;;;;;;;;;;;28.40;88.10;;;;;;4971344;28;20677;-63
2022/07/26 13:12:11;;;;;;;;;;;28.30;88.40;;;;;;4971131;28;20207;-63
2022/07/26 13:14:39;;;;;;;;;;;28.10;88.80;;;;;;4978552;28;20204;-64
2022/07/26 13:17:09;;;;;;;;;;;27.90;89.80;;;;;;4973045;28;20233;-63
2022/07/26 13:19:37;;;;;;;;;;;28.10;89.50;;;;;;4971858;28;20687;-63
2022/07/26 13:22:06;;;;;;;;;;;28.60;88.70;;;;;;4970750;28;20271;-64
2022/07/26 13:24:37;;;;;;;;;;;29.40;88.40;;;;;;4971350;28;20204;-64
2022/07/26 13:27:05;;;;;;;;;;;29.80;85.80;;;;;;4971210;28;20208;-63
2022/07/26 13:29:33;;;;;;;;;;;30.10;85.60;;;;;;4971227;28;20263;-63
2022/07/26 13:32:02;;;;;;;;;;;29.80;85.10;;;;;;4970924;28;20202;-66
2022/07/26 13:34:31;;;;;;;;;;;29.70;84.70;;;;;;4971092;28;20695;-63
2022/07/26 13:37:02;;;;;;;;;;;29.30;87.40;;;;;;4971212;28;20160;-63
2022/07/26 13:39:35;;;;;;;;;;;29.10;87.30;;;;;;4971004;28;25079;-64
2022/07/26 13:42:03;;;;;;;;;;;28.40;86.80;;;;;;4964292;28;20082;-63
2022/07/26 13:44:31;;;;;;;;;;;28.10;87.40;;;;;;4969436;28;20728;-63
2022/07/26 13:47:00;;;;;;;;;;;27.90;86.50;;;;;;4976483;28;20249;-63
2022/07/26 13:49:29;;;;;;;;;;;27.80;88.00;;;;;;4964709;28;20212;-64
2022/07/26 13:51:58;;;;;;;;;;;27.60;86.60;;;;;;4964620;28;20795;-63
2022/07/26 13:54:27;;;;;;;;;;;27.60;87.20;;;;;;4964947;28;20308;-63
2022/07/26 13:56:55;;;;;;;;;;;27.70;87.90;;;;;;4970706;28;20243;-63
2022/07/26 13:59:24;;;;;;;;;;;27.80;86.70;;;;;;4970806;28;20490;-64
2022/07/26 14:01:51;;;;;;;;;;;27.80;87.70;;;;;;4970300;28;25141;-63
2022/07/26 14:04:19;;;;;;;;;;;27.80;87.30;;;;;;4970172;28;20090;-63
2022/07/26 14:06:47;;;;;;;;;;;27.70;87.60;;;;;;4970854;28;20373;-63
2022/07/26 14:09:17;;;;;;;;;;;27.70;87.00;;;;;;4970454;28;20456;-63
2022/07/26 14:11:45;;;;;;;;;;;27.50;87.30;;;;;;4970321;28;20160;-63
2022/07/26 14:14:13;;;;;;;;;;;27.30;88.30;;;;;;4979712;28;20225;-63
2022/07/26 14:16:41;;;;;;;;;;;27.30;89.40;;;;;;4973217;28;20760;-63
2022/07/26 14:19:13;;;;;;;;;;;27.20;88.50;;;;;;4970747;28;20229;-63
2022/07/26 14:21:41;;;;;;;;;;;27.40;87.80;;;;;;4970418;28;20712;-63
2022/07/26 14:24:27;;;;;;;;;;;28.10;87.40;;;;;;4969925;28;20776;-63
2022/07/26 14:26:54;;;;;;;;;;;29.20;86.30;;;;;;4970809;28;20245;-63
2022/07/26 14:29:28;;;;;;;;;;;30.00;84.70;;;;;;4970388;28;20207;-64
2022/07/26 14:31:56;;;;;;;;;;;30.50;82.70;;;;;;4969893;28;20204;-63
2022/07/26 14:34:24;;;;;;;;;;;31.00;81.80;;;;;;4970161;28;21193;-64
2022/07/26 14:36:52;;;;;;;;;;;31.30;80.40;;;;;;4970329;28;20258;-64